Terminal Aerodrome Forecast
Issued by NWS

Home | Current Version | Previous Version | Text Only | Print | Product List | Glossary On
Versions: 1 2 3 4 5 6 7 8 9 10 11 12 13 14 15 16 17 18 19 20 21 22 23 24 25 26 27 28 29
982
FTUS43 KDVN 301326 CCA
TAFBRL
TAF COR
KBRL 301326Z 3013/0112 03014KT P6SM OVC007
      TEMPO 3013/3016 1SM -RADZ OVC004
     FM301700 05015G23KT 4SM SHRA VCTS OVC010CB
      TEMPO 3018/3021 2SM -TSRA BKN008CB
     FM302100 09013KT 3SM -SHRA BR VCTS BKN008CB
     FM010000 19012KT 5SM BR OVC015
     FM010600 21007KT P6SM OVC050=

USA.gov is the U.S. government's official web portal to all federal, state and local government web resources and services.